sensor_id;sensor_type;location;lat;lon;timestamp;P1;durP1;ratioP1;P2;durP2;ratioP2
21567;SDS011;10944;42.590;12.630;2022-09-17T00:02:22;12.95;;;3.05;;
21567;SDS011;10944;42.590;12.630;2022-09-17T00:04:49;15.75;;;3.10;;
21567;SDS011;10944;42.590;12.630;2022-09-17T00:07:15;13.95;;;3.50;;
21567;SDS011;10944;42.590;12.630;2022-09-17T00:09:41;12.93;;;3.05;;
21567;SDS011;10944;42.590;12.630;2022-09-17T00:12:08;14.98;;;3.33;;
21567;SDS011;10944;42.590;12.630;2022-09-17T00:14:34;10.48;;;2.90;;
21567;SDS011;10944;42.590;12.630;2022-09-17T00:17:00;9.73;;;2.88;;
21567;SDS011;10944;42.590;12.630;2022-09-17T00:19:25;13.15;;;3.35;;
21567;SDS011;10944;42.590;12.630;2022-09-17T00:21:51;11.43;;;3.17;;
21567;SDS011;10944;42.590;12.630;2022-09-17T00:24:17;11.73;;;3.20;;
21567;SDS011;10944;42.590;12.630;2022-09-17T00:26:44;10.07;;;3.08;;
21567;SDS011;10944;42.590;12.630;2022-09-17T00:29:11;11.27;;;3.35;;
21567;SDS011;10944;42.590;12.630;2022-09-17T00:31:37;12.32;;;2.83;;
21567;SDS011;10944;42.590;12.630;2022-09-17T00:34:03;12.45;;;2.97;;
21567;SDS011;10944;42.590;12.630;2022-09-17T00:36:30;12.98;;;3.63;;
21567;SDS011;10944;42.590;12.630;2022-09-17T00:38:58;15.45;;;3.30;;
21567;SDS011;10944;42.590;12.630;2022-09-17T00:41:26;13.30;;;3.20;;
21567;SDS011;10944;42.590;12.630;2022-09-17T00:43:57;13.68;;;3.00;;
21567;SDS011;10944;42.590;12.630;2022-09-17T00:49:11;13.35;;;3.40;;
21567;SDS011;10944;42.590;12.630;2022-09-17T00:51:44;13.75;;;3.25;;
21567;SDS011;10944;42.590;12.630;2022-09-17T00:54:21;7.88;;;2.78;;
21567;SDS011;10944;42.590;12.630;2022-09-17T00:56:48;16.17;;;3.70;;
21567;SDS011;10944;42.590;12.630;2022-09-17T00:59:15;12.43;;;4.10;;
21567;SDS011;10944;42.590;12.630;2022-09-17T01:01:43;13.93;;;4.03;;
21567;SDS011;10944;42.590;12.630;2022-09-17T01:04:16;13.70;;;4.13;;
21567;SDS011;10944;42.590;12.630;2022-09-17T01:21:05;17.08;;;4.15;;
21567;SDS011;10944;42.590;12.630;2022-09-17T01:32:21;17.23;;;4.32;;
21567;SDS011;10944;42.590;12.630;2022-09-17T01:37:27;15.52;;;4.72;;
21567;SDS011;10944;42.590;12.630;2022-09-17T01:40:00;15.13;;;4.90;;
21567;SDS011;10944;42.590;12.630;2022-09-17T01:42:50;19.73;;;5.75;;
21567;SDS011;10944;42.590;12.630;2022-09-17T01:45:46;13.82;;;4.70;;
21567;SDS011;10944;42.590;12.630;2022-09-17T01:48:16;18.73;;;5.40;;
21567;SDS011;10944;42.590;12.630;2022-09-17T01:53:47;11.05;;;4.90;;
21567;SDS011;10944;42.590;12.630;2022-09-17T01:56:45;15.40;;;5.13;;
21567;SDS011;10944;42.590;12.630;2022-09-17T01:59:20;17.35;;;5.47;;
21567;SDS011;10944;42.590;12.630;2022-09-17T02:02:13;16.17;;;5.35;;
21567;SDS011;10944;42.590;12.630;2022-09-17T02:04:58;17.65;;;5.20;;
21567;SDS011;10944;42.590;12.630;2022-09-17T02:07:48;14.43;;;5.40;;
21567;SDS011;10944;42.590;12.630;2022-09-17T02:10:20;13.63;;;5.35;;
21567;SDS011;10944;42.590;12.630;2022-09-17T02:13:37;16.50;;;5.47;;
21567;SDS011;10944;42.590;12.630;2022-09-17T02:15:47;13.02;;;4.93;;
21567;SDS011;10944;42.590;12.630;2022-09-17T02:18:38;16.75;;;5.13;;
21567;SDS011;10944;42.590;12.630;2022-09-17T02:21:29;15.07;;;5.25;;
21567;SDS011;10944;42.590;12.630;2022-09-17T02:26:44;14.90;;;5.22;;
21567;SDS011;10944;42.590;12.630;2022-09-17T02:29:32;18.67;;;5.32;;
21567;SDS011;10944;42.590;12.630;2022-09-17T02:32:03;16.45;;;5.10;;
21567;SDS011;10944;42.590;12.630;2022-09-17T02:34:29;12.98;;;4.93;;
21567;SDS011;10944;42.590;12.630;2022-09-17T02:36:56;16.33;;;5.88;;
21567;SDS011;10944;42.590;12.630;2022-09-17T02:39:25;20.38;;;5.18;;
21567;SDS011;10944;42.590;12.630;2022-09-17T02:52:58;17.98;;;5.65;;
21567;SDS011;10944;42.590;12.630;2022-09-17T02:58:13;16.63;;;5.00;;
21567;SDS011;10944;42.590;12.630;2022-09-17T03:00:48;20.48;;;5.50;;
21567;SDS011;10944;42.590;12.630;2022-09-17T03:03:22;17.80;;;5.00;;
21567;SDS011;10944;42.590;12.630;2022-09-17T03:05:55;15.25;;;5.32;;
21567;SDS011;10944;42.590;12.630;2022-09-17T03:08:27;19.23;;;5.20;;
21567;SDS011;10944;42.590;12.630;2022-09-17T03:10:54;19.92;;;5.60;;
21567;SDS011;10944;42.590;12.630;2022-09-17T03:13:20;22.40;;;5.63;;
21567;SDS011;10944;42.590;12.630;2022-09-17T03:15:46;17.63;;;5.60;;
21567;SDS011;10944;42.590;12.630;2022-09-17T03:18:12;17.10;;;5.70;;
21567;SDS011;10944;42.590;12.630;2022-09-17T03:20:38;19.90;;;5.65;;
21567;SDS011;10944;42.590;12.630;2022-09-17T03:23:03;20.27;;;5.40;;
21567;SDS011;10944;42.590;12.630;2022-09-17T03:25:29;16.05;;;5.20;;
21567;SDS011;10944;42.590;12.630;2022-09-17T03:27:55;19.00;;;5.10;;
21567;SDS011;10944;42.590;12.630;2022-09-17T03:30:20;18.15;;;5.63;;
21567;SDS011;10944;42.590;12.630;2022-09-17T03:32:46;21.02;;;5.90;;
21567;SDS011;10944;42.590;12.630;2022-09-17T03:35:12;19.02;;;5.75;;
21567;SDS011;10944;42.590;12.630;2022-09-17T03:37:38;19.00;;;5.88;;
21567;SDS011;10944;42.590;12.630;2022-09-17T03:40:04;17.05;;;5.32;;
21567;SDS011;10944;42.590;12.630;2022-09-17T03:42:30;16.70;;;5.82;;
21567;SDS011;10944;42.590;12.630;2022-09-17T03:44:56;17.08;;;5.72;;
21567;SDS011;10944;42.590;12.630;2022-09-17T03:47:21;16.80;;;6.10;;
21567;SDS011;10944;42.590;12.630;2022-09-17T03:49:47;17.75;;;5.70;;
21567;SDS011;10944;42.590;12.630;2022-09-17T03:52:13;19.30;;;5.75;;
21567;SDS011;10944;42.590;12.630;2022-09-17T03:54:38;17.83;;;5.90;;
21567;SDS011;10944;42.590;12.630;2022-09-17T03:57:04;19.23;;;5.43;;
21567;SDS011;10944;42.590;12.630;2022-09-17T03:59:30;22.30;;;5.90;;
21567;SDS011;10944;42.590;12.630;2022-09-17T04:01:56;20.10;;;5.35;;
21567;SDS011;10944;42.590;12.630;2022-09-17T04:04:21;13.43;;;5.30;;
21567;SDS011;10944;42.590;12.630;2022-09-17T04:06:47;16.92;;;6.03;;
21567;SDS011;10944;42.590;12.630;2022-09-17T04:09:13;16.25;;;5.75;;
21567;SDS011;10944;42.590;12.630;2022-09-17T04:11:38;19.05;;;4.90;;
21567;SDS011;10944;42.590;12.630;2022-09-17T04:14:04;16.77;;;5.40;;
21567;SDS011;10944;42.590;12.630;2022-09-17T04:16:30;14.68;;;5.32;;
21567;SDS011;10944;42.590;12.630;2022-09-17T04:18:56;16.67;;;5.68;;
21567;SDS011;10944;42.590;12.630;2022-09-17T04:21:21;17.48;;;5.60;;
21567;SDS011;10944;42.590;12.630;2022-09-17T04:23:47;20.00;;;5.55;;
21567;SDS011;10944;42.590;12.630;2022-09-17T04:26:13;18.83;;;5.97;;
21567;SDS011;10944;42.590;12.630;2022-09-17T04:28:38;15.35;;;5.25;;
21567;SDS011;10944;42.590;12.630;2022-09-17T04:31:04;18.55;;;5.85;;
21567;SDS011;10944;42.590;12.630;2022-09-17T04:33:30;21.67;;;6.05;;
21567;SDS011;10944;42.590;12.630;2022-09-17T04:35:56;21.95;;;5.85;;
21567;SDS011;10944;42.590;12.630;2022-09-17T04:38:21;18.75;;;5.60;;
21567;SDS011;10944;42.590;12.630;2022-09-17T04:40:47;18.83;;;5.80;;
21567;SDS011;10944;42.590;12.630;2022-09-17T04:43:14;18.80;;;5.93;;
21567;SDS011;10944;42.590;12.630;2022-09-17T04:45:40;20.63;;;6.13;;
21567;SDS011;10944;42.590;12.630;2022-09-17T04:48:05;12.57;;;5.25;;
21567;SDS011;10944;42.590;12.630;2022-09-17T04:50:31;20.45;;;5.47;;
21567;SDS011;10944;42.590;12.630;2022-09-17T04:52:57;15.90;;;5.15;;
21567;SDS011;10944;42.590;12.630;2022-09-17T04:55:22;14.40;;;5.30;;
21567;SDS011;10944;42.590;12.630;2022-09-17T04:57:50;15.35;;;5.65;;
21567;SDS011;10944;42.590;12.630;2022-09-17T05:00:17;16.88;;;5.47;;
21567;SDS011;10944;42.590;12.630;2022-09-17T05:02:47;18.17;;;5.70;;
21567;SDS011;10944;42.590;12.630;2022-09-17T05:05:14;15.45;;;5.82;;
21567;SDS011;10944;42.590;12.630;2022-09-17T05:07:40;23.17;;;6.00;;
21567;SDS011;10944;42.590;12.630;2022-09-17T05:10:06;20.10;;;5.88;;
21567;SDS011;10944;42.590;12.630;2022-09-17T05:12:33;15.88;;;5.82;;
21567;SDS011;10944;42.590;12.630;2022-09-17T05:14:59;16.85;;;5.57;;
21567;SDS011;10944;42.590;12.630;2022-09-17T05:17:25;13.35;;;5.70;;
21567;SDS011;10944;42.590;12.630;2022-09-17T05:19:51;19.35;;;5.80;;
21567;SDS011;10944;42.590;12.630;2022-09-17T05:22:17;19.25;;;5.57;;
21567;SDS011;10944;42.590;12.630;2022-09-17T05:24:44;17.77;;;5.75;;
21567;SDS011;10944;42.590;12.630;2022-09-17T05:27:09;17.23;;;5.88;;
21567;SDS011;10944;42.590;12.630;2022-09-17T05:29:35;13.10;;;5.72;;
21567;SDS011;10944;42.590;12.630;2022-09-17T05:32:01;15.48;;;5.53;;
21567;SDS011;10944;42.590;12.630;2022-09-17T05:34:31;16.48;;;5.40;;
21567;SDS011;10944;42.590;12.630;2022-09-17T05:36:57;14.20;;;5.50;;
21567;SDS011;10944;42.590;12.630;2022-09-17T05:39:23;21.00;;;5.80;;
21567;SDS011;10944;42.590;12.630;2022-09-17T05:41:53;20.33;;;5.82;;
21567;SDS011;10944;42.590;12.630;2022-09-17T05:44:19;18.88;;;5.75;;
21567;SDS011;10944;42.590;12.630;2022-09-17T05:46:45;17.30;;;5.32;;
21567;SDS011;10944;42.590;12.630;2022-09-17T05:49:12;21.90;;;5.63;;
21567;SDS011;10944;42.590;12.630;2022-09-17T05:51:39;15.40;;;5.22;;
21567;SDS011;10944;42.590;12.630;2022-09-17T05:54:05;16.48;;;5.53;;
21567;SDS011;10944;42.590;12.630;2022-09-17T05:56:32;18.52;;;6.47;;
21567;SDS011;10944;42.590;12.630;2022-09-17T05:58:57;14.23;;;5.43;;
21567;SDS011;10944;42.590;12.630;2022-09-17T06:01:23;19.42;;;5.72;;
21567;SDS011;10944;42.590;12.630;2022-09-17T06:03:49;19.77;;;5.53;;
21567;SDS011;10944;42.590;12.630;2022-09-17T06:06:15;18.50;;;5.60;;
21567;SDS011;10944;42.590;12.630;2022-09-17T06:08:40;17.45;;;5.55;;
21567;SDS011;10944;42.590;12.630;2022-09-17T06:11:06;18.75;;;6.10;;
21567;SDS011;10944;42.590;12.630;2022-09-17T06:13:32;15.52;;;5.65;;
21567;SDS011;10944;42.590;12.630;2022-09-17T06:15:59;18.48;;;5.03;;
21567;SDS011;10944;42.590;12.630;2022-09-17T06:18:26;21.50;;;5.80;;
21567;SDS011;10944;42.590;12.630;2022-09-17T06:20:53;22.13;;;5.45;;
21567;SDS011;10944;42.590;12.630;2022-09-17T06:23:20;16.65;;;4.85;;
21567;SDS011;10944;42.590;12.630;2022-09-17T06:26:04;15.52;;;5.70;;
21567;SDS011;10944;42.590;12.630;2022-09-17T06:28:31;18.02;;;5.65;;
21567;SDS011;10944;42.590;12.630;2022-09-17T06:31:00;15.25;;;4.97;;
21567;SDS011;10944;42.590;12.630;2022-09-17T06:33:28;15.52;;;4.90;;
21567;SDS011;10944;42.590;12.630;2022-09-17T06:35:59;18.40;;;5.30;;
21567;SDS011;10944;42.590;12.630;2022-09-17T06:38:30;11.77;;;4.45;;
21567;SDS011;10944;42.590;12.630;2022-09-17T06:40:57;18.73;;;5.85;;
21567;SDS011;10944;42.590;12.630;2022-09-17T06:43:23;16.05;;;5.30;;
21567;SDS011;10944;42.590;12.630;2022-09-17T06:45:56;15.23;;;5.10;;
21567;SDS011;10944;42.590;12.630;2022-09-17T06:48:23;19.23;;;5.65;;
21567;SDS011;10944;42.590;12.630;2022-09-17T06:50:51;14.27;;;4.72;;
21567;SDS011;10944;42.590;12.630;2022-09-17T06:53:18;16.05;;;4.85;;
21567;SDS011;10944;42.590;12.630;2022-09-17T06:55:48;13.20;;;4.13;;
21567;SDS011;10944;42.590;12.630;2022-09-17T06:58:14;13.38;;;4.22;;
21567;SDS011;10944;42.590;12.630;2022-09-17T07:00:40;15.18;;;5.22;;
21567;SDS011;10944;42.590;12.630;2022-09-17T07:03:06;16.55;;;4.53;;
21567;SDS011;10944;42.590;12.630;2022-09-17T07:05:33;16.75;;;5.13;;
21567;SDS011;10944;42.590;12.630;2022-09-17T07:08:00;18.63;;;5.10;;
21567;SDS011;10944;42.590;12.630;2022-09-17T07:10:29;17.42;;;5.30;;
21567;SDS011;10944;42.590;12.630;2022-09-17T07:12:56;20.08;;;4.95;;
21567;SDS011;10944;42.590;12.630;2022-09-17T07:15:21;18.30;;;4.90;;
21567;SDS011;10944;42.590;12.630;2022-09-17T07:17:47;18.40;;;5.72;;
21567;SDS011;10944;42.590;12.630;2022-09-17T07:20:13;17.17;;;5.25;;
21567;SDS011;10944;42.590;12.630;2022-09-17T07:22:39;12.95;;;4.35;;
21567;SDS011;10944;42.590;12.630;2022-09-17T07:25:05;14.35;;;4.70;;
21567;SDS011;10944;42.590;12.630;2022-09-17T07:27:31;18.25;;;4.82;;
21567;SDS011;10944;42.590;12.630;2022-09-17T07:29:57;17.27;;;4.55;;
21567;SDS011;10944;42.590;12.630;2022-09-17T07:32:23;16.60;;;4.70;;
21567;SDS011;10944;42.590;12.630;2022-09-17T07:34:49;20.30;;;4.50;;
21567;SDS011;10944;42.590;12.630;2022-09-17T07:37:15;16.70;;;4.43;;
21567;SDS011;10944;42.590;12.630;2022-09-17T07:39:42;17.48;;;4.22;;
21567;SDS011;10944;42.590;12.630;2022-09-17T07:42:08;19.25;;;5.03;;
21567;SDS011;10944;42.590;12.630;2022-09-17T07:44:34;19.80;;;4.95;;
21567;SDS011;10944;42.590;12.630;2022-09-17T07:47:00;19.33;;;4.57;;
21567;SDS011;10944;42.590;12.630;2022-09-17T07:49:26;20.38;;;5.03;;
21567;SDS011;10944;42.590;12.630;2022-09-17T07:51:52;14.30;;;4.30;;
21567;SDS011;10944;42.590;12.630;2022-09-17T07:54:21;18.27;;;4.50;;
21567;SDS011;10944;42.590;12.630;2022-09-17T07:56:47;15.02;;;4.78;;
21567;SDS011;10944;42.590;12.630;2022-09-17T07:59:13;19.58;;;4.55;;
21567;SDS011;10944;42.590;12.630;2022-09-17T08:01:38;19.83;;;4.50;;
21567;SDS011;10944;42.590;12.630;2022-09-17T08:04:04;16.13;;;4.45;;
21567;SDS011;10944;42.590;12.630;2022-09-17T08:06:34;15.93;;;4.30;;
21567;SDS011;10944;42.590;12.630;2022-09-17T08:09:02;15.90;;;4.35;;
21567;SDS011;10944;42.590;12.630;2022-09-17T08:11:28;11.88;;;4.07;;
21567;SDS011;10944;42.590;12.630;2022-09-17T08:13:55;18.77;;;4.20;;
21567;SDS011;10944;42.590;12.630;2022-09-17T08:16:21;16.77;;;4.32;;
21567;SDS011;10944;42.590;12.630;2022-09-17T08:18:47;20.23;;;4.70;;
21567;SDS011;10944;42.590;12.630;2022-09-17T08:21:18;13.60;;;4.10;;
21567;SDS011;10944;42.590;12.630;2022-09-17T08:23:44;17.73;;;4.20;;
21567;SDS011;10944;42.590;12.630;2022-09-17T08:26:11;14.73;;;4.35;;
21567;SDS011;10944;42.590;12.630;2022-09-17T08:28:39;16.27;;;4.13;;
21567;SDS011;10944;42.590;12.630;2022-09-17T08:31:12;16.08;;;4.43;;
21567;SDS011;10944;42.590;12.630;2022-09-17T08:33:39;17.00;;;4.47;;
21567;SDS011;10944;42.590;12.630;2022-09-17T08:36:06;15.38;;;4.00;;
21567;SDS011;10944;42.590;12.630;2022-09-17T08:38:34;19.17;;;4.18;;
21567;SDS011;10944;42.590;12.630;2022-09-17T08:41:25;15.55;;;4.13;;
21567;SDS011;10944;42.590;12.630;2022-09-17T08:46:56;19.92;;;4.55;;
21567;SDS011;10944;42.590;12.630;2022-09-17T08:49:31;15.00;;;4.20;;
21567;SDS011;10944;42.590;12.630;2022-09-17T08:54:53;13.05;;;4.28;;
21567;SDS011;10944;42.590;12.630;2022-09-17T08:57:40;12.55;;;3.90;;
21567;SDS011;10944;42.590;12.630;2022-09-17T09:00:14;14.68;;;4.32;;
21567;SDS011;10944;42.590;12.630;2022-09-17T09:08:13;15.25;;;4.32;;
21567;SDS011;10944;42.590;12.630;2022-09-17T09:10:52;15.95;;;4.45;;
21567;SDS011;10944;42.590;12.630;2022-09-17T09:13:27;22.27;;;4.93;;
21567;SDS011;10944;42.590;12.630;2022-09-17T09:16:21;17.73;;;5.03;;
21567;SDS011;10944;42.590;12.630;2022-09-17T09:18:50;13.73;;;4.50;;
21567;SDS011;10944;42.590;12.630;2022-09-17T09:30:05;17.67;;;4.35;;
21567;SDS011;10944;42.590;12.630;2022-09-17T09:35:45;13.77;;;4.35;;
21567;SDS011;10944;42.590;12.630;2022-09-17T09:38:14;14.38;;;4.30;;
21567;SDS011;10944;42.590;12.630;2022-09-17T09:51:31;15.00;;;3.85;;
21567;SDS011;10944;42.590;12.630;2022-09-17T09:54:15;15.40;;;4.10;;
21567;SDS011;10944;42.590;12.630;2022-09-17T09:57:07;14.98;;;4.80;;
21567;SDS011;10944;42.590;12.630;2022-09-17T09:59:41;20.08;;;4.55;;
21567;SDS011;10944;42.590;12.630;2022-09-17T10:02:07;23.20;;;4.70;;
21567;SDS011;10944;42.590;12.630;2022-09-17T10:04:33;16.75;;;4.63;;
21567;SDS011;10944;42.590;12.630;2022-09-17T10:07:00;17.70;;;4.40;;
21567;SDS011;10944;42.590;12.630;2022-09-17T10:09:31;20.58;;;5.15;;
21567;SDS011;10944;42.590;12.630;2022-09-17T10:12:03;17.30;;;4.53;;
21567;SDS011;10944;42.590;12.630;2022-09-17T10:14:40;17.45;;;4.32;;
21567;SDS011;10944;42.590;12.630;2022-09-17T10:17:22;13.27;;;4.53;;
21567;SDS011;10944;42.590;12.630;2022-09-17T10:22:35;15.60;;;4.32;;
21567;SDS011;10944;42.590;12.630;2022-09-17T10:25:04;15.63;;;4.60;;
21567;SDS011;10944;42.590;12.630;2022-09-17T10:27:41;17.33;;;4.40;;
21567;SDS011;10944;42.590;12.630;2022-09-17T10:32:35;13.40;;;4.57;;
21567;SDS011;10944;42.590;12.630;2022-09-17T10:35:05;16.60;;;4.78;;
21567;SDS011;10944;42.590;12.630;2022-09-17T10:37:40;15.10;;;4.30;;
21567;SDS011;10944;42.590;12.630;2022-09-17T10:42:48;12.23;;;4.43;;
21567;SDS011;10944;42.590;12.630;2022-09-17T10:45:25;13.82;;;5.00;;
21567;SDS011;10944;42.590;12.630;2022-09-17T10:47:52;14.27;;;3.95;;
21567;SDS011;10944;42.590;12.630;2022-09-17T10:50:20;15.45;;;4.35;;
21567;SDS011;10944;42.590;12.630;2022-09-17T10:52:54;14.70;;;4.60;;
21567;SDS011;10944;42.590;12.630;2022-09-17T10:58:03;12.93;;;4.20;;
21567;SDS011;10944;42.590;12.630;2022-09-17T11:20:23;12.40;;;3.92;;
21567;SDS011;10944;42.590;12.630;2022-09-17T11:22:57;16.55;;;4.15;;
21567;SDS011;10944;42.590;12.630;2022-09-17T11:25:43;14.25;;;4.00;;
21567;SDS011;10944;42.590;12.630;2022-09-17T11:34:28;12.05;;;3.55;;
21567;SDS011;10944;42.590;12.630;2022-09-17T11:37:02;9.93;;;3.50;;
21567;SDS011;10944;42.590;12.630;2022-09-17T11:42:41;3.55;;;0.80;;
21567;SDS011;10944;42.590;12.630;2022-09-17T11:45:26;4.28;;;0.90;;
21567;SDS011;10944;42.590;12.630;2022-09-17T11:50:50;7.50;;;0.73;;
21567;SDS011;10944;42.590;12.630;2022-09-17T11:53:43;1.25;;;0.43;;
21567;SDS011;10944;42.590;12.630;2022-09-17T11:56:20;11.02;;;0.40;;
21567;SDS011;10944;42.590;12.630;2022-09-17T12:06:52;3.38;;;0.35;;
21567;SDS011;10944;42.590;12.630;2022-09-17T12:09:37;1.58;;;0.38;;
21567;SDS011;10944;42.590;12.630;2022-09-17T12:12:12;4.25;;;0.77;;
21567;SDS011;10944;42.590;12.630;2022-09-17T12:14:48;6.65;;;0.40;;
21567;SDS011;10944;42.590;12.630;2022-09-17T12:17:21;3.13;;;0.73;;
21567;SDS011;10944;42.590;12.630;2022-09-17T12:19:56;2.20;;;0.47;;
21567;SDS011;10944;42.590;12.630;2022-09-17T12:22:26;1.95;;;0.20;;
21567;SDS011;10944;42.590;12.630;2022-09-17T12:24:56;1.55;;;0.20;;
21567;SDS011;10944;42.590;12.630;2022-09-17T12:30:09;2.08;;;0.10;;
21567;SDS011;10944;42.590;12.630;2022-09-17T12:35:17;1.15;;;0.57;;
21567;SDS011;10944;42.590;12.630;2022-09-17T12:43:36;3.17;;;0.30;;
21567;SDS011;10944;42.590;12.630;2022-09-17T12:46:36;1.35;;;0.20;;
21567;SDS011;10944;42.590;12.630;2022-09-17T13:00:11;0.30;;;0.15;;
21567;SDS011;10944;42.590;12.630;2022-09-17T13:02:43;0.68;;;0.20;;
21567;SDS011;10944;42.590;12.630;2022-09-17T13:05:38;2.92;;;0.20;;
21567;SDS011;10944;42.590;12.630;2022-09-17T13:08:41;1.48;;;0.20;;
21567;SDS011;10944;42.590;12.630;2022-09-17T13:14:06;1.10;;;0.20;;
21567;SDS011;10944;42.590;12.630;2022-09-17T13:17:06;1.17;;;0.20;;
21567;SDS011;10944;42.590;12.630;2022-09-17T13:19:49;1.23;;;0.10;;
21567;SDS011;10944;42.590;12.630;2022-09-17T13:22:42;4.25;;;0.20;;
21567;SDS011;10944;42.590;12.630;2022-09-17T13:25:20;2.05;;;0.10;;
21567;SDS011;10944;42.590;12.630;2022-09-17T13:27:47;1.80;;;0.30;;
21567;SDS011;10944;42.590;12.630;2022-09-17T13:30:17;1.88;;;0.30;;
21567;SDS011;10944;42.590;12.630;2022-09-17T13:32:48;3.42;;;0.20;;
21567;SDS011;10944;42.590;12.630;2022-09-17T13:40:19;2.25;;;0.20;;
21567;SDS011;10944;42.590;12.630;2022-09-17T13:42:46;2.45;;;0.20;;
21567;SDS011;10944;42.590;12.630;2022-09-17T13:45:16;1.38;;;0.10;;
21567;SDS011;10944;42.590;12.630;2022-09-17T13:50:35;3.55;;;0.30;;
21567;SDS011;10944;42.590;12.630;2022-09-17T13:55:44;1.00;;;0.20;;
21567;SDS011;10944;42.590;12.630;2022-09-17T14:19:04;1.85;;;0.20;;
21567;SDS011;10944;42.590;12.630;2022-09-17T14:22:02;3.55;;;0.30;;
21567;SDS011;10944;42.590;12.630;2022-09-17T14:27:14;4.80;;;0.20;;
21567;SDS011;10944;42.590;12.630;2022-09-17T14:32:14;1.35;;;0.20;;
21567;SDS011;10944;42.590;12.630;2022-09-17T14:34:46;1.02;;;0.20;;
21567;SDS011;10944;42.590;12.630;2022-09-17T14:37:14;0.82;;;0.20;;
21567;SDS011;10944;42.590;12.630;2022-09-17T14:39:43;0.40;;;0.20;;
21567;SDS011;10944;42.590;12.630;2022-09-17T14:42:18;1.75;;;0.22;;
21567;SDS011;10944;42.590;12.630;2022-09-17T14:45:02;0.98;;;0.20;;
21567;SDS011;10944;42.590;12.630;2022-09-17T14:47:32;0.88;;;0.30;;
21567;SDS011;10944;42.590;12.630;2022-09-17T14:52:49;3.33;;;0.20;;
21567;SDS011;10944;42.590;12.630;2022-09-17T14:55:24;1.15;;;0.20;;
21567;SDS011;10944;42.590;12.630;2022-09-17T14:57:55;0.93;;;0.20;;
21567;SDS011;10944;42.590;12.630;2022-09-17T15:00:26;1.85;;;0.20;;
21567;SDS011;10944;42.590;12.630;2022-09-17T15:03:02;0.98;;;0.20;;
21567;SDS011;10944;42.590;12.630;2022-09-17T15:08:30;1.98;;;0.20;;
21567;SDS011;10944;42.590;12.630;2022-09-17T15:13:25;0.28;;;0.20;;
21567;SDS011;10944;42.590;12.630;2022-09-17T15:18:51;2.15;;;0.52;;
21567;SDS011;10944;42.590;12.630;2022-09-17T15:21:33;2.00;;;0.20;;
21567;SDS011;10944;42.590;12.630;2022-09-17T15:24:12;0.47;;;0.20;;
21567;SDS011;10944;42.590;12.630;2022-09-17T15:26:55;0.75;;;0.30;;
21567;SDS011;10944;42.590;12.630;2022-09-17T15:29:25;0.25;;;0.20;;
21567;SDS011;10944;42.590;12.630;2022-09-17T15:31:54;0.55;;;0.20;;
21567;SDS011;10944;42.590;12.630;2022-09-17T15:34:21;1.77;;;0.22;;
21567;SDS011;10944;42.590;12.630;2022-09-17T15:39:52;1.17;;;0.20;;
21567;SDS011;10944;42.590;12.630;2022-09-17T15:42:21;1.10;;;0.20;;
21567;SDS011;10944;42.590;12.630;2022-09-17T15:44:52;1.30;;;0.20;;
21567;SDS011;10944;42.590;12.630;2022-09-17T15:47:47;0.80;;;0.20;;
21567;SDS011;10944;42.590;12.630;2022-09-17T15:52:43;1.58;;;0.30;;
21567;SDS011;10944;42.590;12.630;2022-09-17T15:57:59;3.13;;;0.40;;
21567;SDS011;10944;42.590;12.630;2022-09-17T16:00:27;0.75;;;0.30;;
21567;SDS011;10944;42.590;12.630;2022-09-17T16:02:54;0.50;;;0.20;;
21567;SDS011;10944;42.590;12.630;2022-09-17T16:07:48;1.48;;;0.35;;
21567;SDS011;10944;42.590;12.630;2022-09-17T16:10:14;0.30;;;0.20;;
21567;SDS011;10944;42.590;12.630;2022-09-17T16:12:40;0.85;;;0.30;;
21567;SDS011;10944;42.590;12.630;2022-09-17T16:15:06;0.88;;;0.30;;
21567;SDS011;10944;42.590;12.630;2022-09-17T16:22:34;1.58;;;0.30;;
21567;SDS011;10944;42.590;12.630;2022-09-17T16:24:59;0.85;;;0.30;;
21567;SDS011;10944;42.590;12.630;2022-09-17T16:27:26;1.08;;;0.38;;
21567;SDS011;10944;42.590;12.630;2022-09-17T16:30:03;1.10;;;0.40;;
21567;SDS011;10944;42.590;12.630;2022-09-17T16:32:33;0.65;;;0.22;;
21567;SDS011;10944;42.590;12.630;2022-09-17T16:34:58;0.40;;;0.20;;
21567;SDS011;10944;42.590;12.630;2022-09-17T16:37:24;1.02;;;0.47;;
21567;SDS011;10944;42.590;12.630;2022-09-17T16:39:50;0.75;;;0.20;;
21567;SDS011;10944;42.590;12.630;2022-09-17T16:42:16;1.98;;;0.30;;
21567;SDS011;10944;42.590;12.630;2022-09-17T16:44:42;3.75;;;0.40;;
21567;SDS011;10944;42.590;12.630;2022-09-17T16:47:08;1.83;;;0.40;;
21567;SDS011;10944;42.590;12.630;2022-09-17T16:49:34;2.63;;;0.40;;
21567;SDS011;10944;42.590;12.630;2022-09-17T16:51:59;1.17;;;0.30;;
21567;SDS011;10944;42.590;12.630;2022-09-17T16:54:25;2.78;;;0.50;;
21567;SDS011;10944;42.590;12.630;2022-09-17T16:56:51;4.40;;;0.40;;
21567;SDS011;10944;42.590;12.630;2022-09-17T16:59:17;1.60;;;0.50;;
21567;SDS011;10944;42.590;12.630;2022-09-17T17:01:43;4.57;;;0.70;;
21567;SDS011;10944;42.590;12.630;2022-09-17T17:04:09;7.82;;;0.70;;
21567;SDS011;10944;42.590;12.630;2022-09-17T17:06:34;5.68;;;0.57;;
21567;SDS011;10944;42.590;12.630;2022-09-17T17:09:00;3.45;;;0.50;;
21567;SDS011;10944;42.590;12.630;2022-09-17T17:11:26;5.03;;;1.70;;
21567;SDS011;10944;42.590;12.630;2022-09-17T17:13:53;1.20;;;0.40;;
21567;SDS011;10944;42.590;12.630;2022-09-17T17:16:22;2.97;;;0.60;;
21567;SDS011;10944;42.590;12.630;2022-09-17T17:18:49;1.92;;;0.30;;
21567;SDS011;10944;42.590;12.630;2022-09-17T17:21:17;4.30;;;0.65;;
21567;SDS011;10944;42.590;12.630;2022-09-17T17:23:44;2.20;;;0.50;;
21567;SDS011;10944;42.590;12.630;2022-09-17T17:26:11;1.83;;;0.47;;
21567;SDS011;10944;42.590;12.630;2022-09-17T17:28:38;4.13;;;0.50;;
21567;SDS011;10944;42.590;12.630;2022-09-17T17:31:04;2.05;;;0.60;;
21567;SDS011;10944;42.590;12.630;2022-09-17T17:33:30;2.83;;;0.43;;
21567;SDS011;10944;42.590;12.630;2022-09-17T17:35:58;2.25;;;0.63;;
21567;SDS011;10944;42.590;12.630;2022-09-17T17:38:24;1.52;;;0.50;;
21567;SDS011;10944;42.590;12.630;2022-09-17T17:41:12;2.55;;;0.45;;
21567;SDS011;10944;42.590;12.630;2022-09-17T17:43:38;3.10;;;0.63;;
21567;SDS011;10944;42.590;12.630;2022-09-17T17:46:06;3.72;;;0.60;;
21567;SDS011;10944;42.590;12.630;2022-09-17T17:48:33;2.35;;;0.40;;
21567;SDS011;10944;42.590;12.630;2022-09-17T17:51:03;2.10;;;0.50;;
21567;SDS011;10944;42.590;12.630;2022-09-17T17:53:30;4.43;;;0.50;;
21567;SDS011;10944;42.590;12.630;2022-09-17T17:55:57;3.53;;;0.40;;
21567;SDS011;10944;42.590;12.630;2022-09-17T17:58:23;2.78;;;0.60;;
21567;SDS011;10944;42.590;12.630;2022-09-17T18:00:49;2.70;;;0.40;;
21567;SDS011;10944;42.590;12.630;2022-09-17T18:03:15;3.72;;;0.50;;
21567;SDS011;10944;42.590;12.630;2022-09-17T18:05:41;2.60;;;0.52;;
21567;SDS011;10944;42.590;12.630;2022-09-17T18:08:07;2.63;;;0.45;;
21567;SDS011;10944;42.590;12.630;2022-09-17T18:10:33;1.90;;;0.40;;
21567;SDS011;10944;42.590;12.630;2022-09-17T18:12:58;2.80;;;0.60;;
21567;SDS011;10944;42.590;12.630;2022-09-17T18:15:25;4.30;;;0.63;;
21567;SDS011;10944;42.590;12.630;2022-09-17T18:17:51;3.00;;;0.60;;
21567;SDS011;10944;42.590;12.630;2022-09-17T18:20:17;1.73;;;0.50;;
21567;SDS011;10944;42.590;12.630;2022-09-17T18:22:43;4.63;;;0.50;;
21567;SDS011;10944;42.590;12.630;2022-09-17T18:25:09;1.33;;;0.30;;